Pagina principale
METAR-TAF:

METAR-TAF

Aeroporti :

Ancona, Italia

latitudine: 43-37N, longitudine: 013-22E, altezza: 12 m

Osservazione

Il bollettino è stato emesso 53 minuti fa, alle 21:50 UTC
Vento 2 kt da direzioni variabili
Temperature 12°C
Umidità 100%
Pressione 1027 hPa
Visibilità: 0300 m
Nuvoloso ad un'altezza di 200 ft
nebbia

METAR: LIPY 122150Z VRB02KT 0300 R22/0900 FG BKN002 12/12 Q1027

Ora: 23:43 (22:43 UTC)

Previsione

Il bollettino è stato emesso 5 ore e 14 minuti fa, alle 17:29 UTC
Previsione valida dal 12 alle 18 UTC al 13 alle 18 UTC
Vento 4 kt da direzioni variabili
Visibilità: 0200 m
Nuvoloso ad un'altezza di 400 ft
nebbia
Evoluzione graduale
dal 13 alle 08 UTC al 13 alle 10 UTC
Visibilità: 3000 m
foschia

TAF: LIPY 121729Z 1218/1318 VRB04KT 0200 FG BKN004 BECMG 1308/1310 3000 BR

Osservazioni e previsioni meteorologiche di più di 4000 aeroporti (messaggi METAR e TAF).

Le stazioni disponibili sono rappresentate dai dischi gialli e rossi sulla carta.

Puntare il mouse per vedere il nome della stazione.

Clicca sopra per visualizzare le osservazioni e previsioni meteorologiche.

Per cambiare la mappa : fare clic sui pulsanti verdi con una croce nera per ingrandire, il pulsante verde con un trattino per diminuire, o sulla freccia verde per le mappe adiacenti.


METAR-TAF: